sensor_id;sensor_type;location;lat;lon;timestamp;pressure;altitude;pressure_sealevel;temperature;humidity
76311;BME280;65120;59.304;18.294;2023-06-24T00:02:14;101747.59;;;15.88;63.29
76311;BME280;65120;59.304;18.294;2023-06-24T00:04:41;101748.53;;;15.86;63.47
76311;BME280;65120;59.304;18.294;2023-06-24T00:07:08;101750.34;;;15.84;63.20
76311;BME280;65120;59.304;18.294;2023-06-24T00:09:35;101765.31;;;15.82;63.44
76311;BME280;65120;59.304;18.294;2023-06-24T00:12:03;101753.06;;;15.79;63.61
76311;BME280;65120;59.304;18.294;2023-06-24T00:14:30;101754.22;;;15.69;63.65
76311;BME280;65120;59.304;18.294;2023-06-24T00:16:57;101761.97;;;15.75;63.74
76311;BME280;65120;59.304;18.294;2023-06-24T00:19:26;101758.50;;;15.73;63.71
76311;BME280;65120;59.304;18.294;2023-06-24T00:21:53;101751.66;;;15.64;63.48
76311;BME280;65120;59.304;18.294;2023-06-24T00:24:21;101760.38;;;15.68;63.62
76311;BME280;65120;59.304;18.294;2023-06-24T00:26:51;101773.56;;;15.66;63.69
76311;BME280;65120;59.304;18.294;2023-06-24T00:29:17;101773.63;;;15.63;63.85
76311;BME280;65120;59.304;18.294;2023-06-24T00:31:44;101786.81;;;15.62;64.10
76311;BME280;65120;59.304;18.294;2023-06-24T00:34:11;101777.28;;;15.58;64.25
76311;BME280;65120;59.304;18.294;2023-06-24T00:36:40;101771.25;;;15.52;64.21
76311;BME280;65120;59.304;18.294;2023-06-24T00:39:09;101780.91;;;15.52;64.32
76311;BME280;65120;59.304;18.294;2023-06-24T00:41:36;101775.72;;;15.49;64.24
76311;BME280;65120;59.304;18.294;2023-06-24T00:44:03;101779.28;;;15.46;64.25
76311;BME280;65120;59.304;18.294;2023-06-24T00:46:30;101785.47;;;15.45;64.34
76311;BME280;65120;59.304;18.294;2023-06-24T00:48:58;101788.13;;;15.42;64.30
76311;BME280;65120;59.304;18.294;2023-06-24T00:51:26;101762.22;;;15.24;64.42
76311;BME280;65120;59.304;18.294;2023-06-24T00:53:57;101794.38;;;15.38;64.51
76311;BME280;65120;59.304;18.294;2023-06-24T00:56:29;101796.19;;;15.36;64.59
76311;BME280;65120;59.304;18.294;2023-06-24T00:58:57;101798.88;;;15.35;64.48
76311;BME280;65120;59.304;18.294;2023-06-24T01:01:28;101791.97;;;15.27;64.50
76311;BME280;65120;59.304;18.294;2023-06-24T01:03:57;101809.47;;;15.30;64.49
76311;BME280;65120;59.304;18.294;2023-06-24T01:06:24;101816.53;;;15.28;64.38
76311;BME280;65120;59.304;18.294;2023-06-24T01:08:54;101821.00;;;15.26;64.47
76311;BME280;65120;59.304;18.294;2023-06-24T01:11:23;101816.66;;;15.23;64.57
76311;BME280;65120;59.304;18.294;2023-06-24T01:13:50;101814.09;;;15.19;64.80
76311;BME280;65120;59.304;18.294;2023-06-24T01:16:32;101822.00;;;15.19;64.63
76311;BME280;65120;59.304;18.294;2023-06-24T01:19:15;101817.66;;;15.16;64.80
76311;BME280;65120;59.304;18.294;2023-06-24T01:22:01;101830.00;;;15.14;64.50
76311;BME280;65120;59.304;18.294;2023-06-24T01:24:48;101812.69;;;15.02;64.81
76311;BME280;65120;59.304;18.294;2023-06-24T01:27:31;101834.44;;;15.11;64.84
76311;BME280;65120;59.304;18.294;2023-06-24T01:30:40;101829.19;;;15.11;64.91
76311;BME280;65120;59.304;18.294;2023-06-24T01:33:14;101820.50;;;15.07;65.26
76311;BME280;65120;59.304;18.294;2023-06-24T01:35:45;101823.09;;;15.09;65.40
76311;BME280;65120;59.304;18.294;2023-06-24T01:38:21;101814.44;;;15.03;65.05
76311;BME280;65120;59.304;18.294;2023-06-24T01:40:50;101820.53;;;15.05;65.05
76311;BME280;65120;59.304;18.294;2023-06-24T01:43:19;101817.00;;;15.05;65.22
76311;BME280;65120;59.304;18.294;2023-06-24T01:45:50;101823.97;;;15.07;65.34
76311;BME280;65120;59.304;18.294;2023-06-24T01:48:24;101824.03;;;15.06;65.30
76311;BME280;65120;59.304;18.294;2023-06-24T01:50:57;101826.75;;;15.01;65.26
76311;BME280;65120;59.304;18.294;2023-06-24T01:53:26;101832.84;;;15.03;65.29
76311;BME280;65120;59.304;18.294;2023-06-24T01:55:54;101837.28;;;15.01;65.18
76311;BME280;65120;59.304;18.294;2023-06-24T01:58:22;101832.06;;;14.98;65.28
76311;BME280;65120;59.304;18.294;2023-06-24T02:00:50;101836.47;;;14.98;65.24
76311;BME280;65120;59.304;18.294;2023-06-24T02:03:21;101836.56;;;14.93;65.20
76311;BME280;65120;59.304;18.294;2023-06-24T02:05:49;101836.63;;;14.90;65.14
76311;BME280;65120;59.304;18.294;2023-06-24T02:08:18;101842.72;;;14.92;65.48
76311;BME280;65120;59.304;18.294;2023-06-24T02:10:47;101833.19;;;14.87;65.51
76311;BME280;65120;59.304;18.294;2023-06-24T02:13:16;101842.78;;;14.89;65.54
76311;BME280;65120;59.304;18.294;2023-06-24T02:15:45;101834.09;;;14.84;65.42
76311;BME280;65120;59.304;18.294;2023-06-24T02:18:14;101844.56;;;14.87;65.44
76311;BME280;65120;59.304;18.294;2023-06-24T02:20:46;101848.09;;;14.86;65.60
76311;BME280;65120;59.304;18.294;2023-06-24T02:23:15;101852.53;;;14.84;65.56
76311;BME280;65120;59.304;18.294;2023-06-24T02:25:42;101856.06;;;14.83;65.61
76311;BME280;65120;59.304;18.294;2023-06-24T02:28:10;101862.19;;;14.82;65.71
76311;BME280;65120;59.304;18.294;2023-06-24T02:30:38;101856.06;;;14.81;65.79
76311;BME280;65120;59.304;18.294;2023-06-24T02:33:05;101857.00;;;14.79;65.66
76311;BME280;65120;59.304;18.294;2023-06-24T02:35:33;101863.09;;;14.81;65.71
76311;BME280;65120;59.304;18.294;2023-06-24T02:38:01;101865.72;;;14.81;65.94
76311;BME280;65120;59.304;18.294;2023-06-24T02:40:28;101870.13;;;14.80;65.68
76311;BME280;65120;59.304;18.294;2023-06-24T02:42:56;101858.78;;;14.77;65.73
76311;BME280;65120;59.304;18.294;2023-06-24T02:45:24;101871.91;;;14.80;66.02
76311;BME280;65120;59.304;18.294;2023-06-24T02:47:52;101867.50;;;14.79;65.88
76311;BME280;65120;59.304;18.294;2023-06-24T02:50:21;101870.16;;;14.79;66.09
76311;BME280;65120;59.304;18.294;2023-06-24T02:52:49;101867.50;;;14.79;66.22
76311;BME280;65120;59.304;18.294;2023-06-24T02:55:18;101872.78;;;14.79;66.29
76311;BME280;65120;59.304;18.294;2023-06-24T02:57:45;101863.13;;;14.79;66.38
76311;BME280;65120;59.304;18.294;2023-06-24T03:00:13;101877.16;;;14.80;66.43
76311;BME280;65120;59.304;18.294;2023-06-24T03:02:42;101871.00;;;14.79;66.56
76311;BME280;65120;59.304;18.294;2023-06-24T03:05:10;101875.41;;;14.80;66.59
76311;BME280;65120;59.304;18.294;2023-06-24T03:07:37;101878.88;;;14.81;66.69
76311;BME280;65120;59.304;18.294;2023-06-24T03:10:05;101872.72;;;14.82;66.77
76311;BME280;65120;59.304;18.294;2023-06-24T03:12:34;101883.25;;;14.82;66.84
76311;BME280;65120;59.304;18.294;2023-06-24T03:15:01;101882.38;;;14.83;66.41
76311;BME280;65120;59.304;18.294;2023-06-24T03:17:29;101888.44;;;14.85;66.59
76311;BME280;65120;59.304;18.294;2023-06-24T03:19:56;101879.66;;;14.86;66.78
76311;BME280;65120;59.304;18.294;2023-06-24T03:22:24;101892.78;;;14.88;66.37
76311;BME280;65120;59.304;18.294;2023-06-24T03:24:51;101883.13;;;14.88;66.71
76311;BME280;65120;59.304;18.294;2023-06-24T03:27:18;101886.59;;;14.90;66.62
76311;BME280;65120;59.304;18.294;2023-06-24T03:29:46;101886.53;;;14.93;66.58
76311;BME280;65120;59.304;18.294;2023-06-24T03:32:13;101883.91;;;14.95;65.50
76311;BME280;65120;59.304;18.294;2023-06-24T03:34:41;101886.47;;;14.96;65.66
76311;BME280;65120;59.304;18.294;2023-06-24T03:37:07;101892.53;;;15.01;65.28
76311;BME280;65120;59.304;18.294;2023-06-24T03:39:34;101891.59;;;15.04;65.65
76311;BME280;65120;59.304;18.294;2023-06-24T03:42:01;101897.72;;;15.06;64.95
76311;BME280;65120;59.304;18.294;2023-06-24T03:44:28;101905.53;;;15.09;64.96
76311;BME280;65120;59.304;18.294;2023-06-24T03:46:56;101900.19;;;15.14;64.64
76311;BME280;65120;59.304;18.294;2023-06-24T03:49:23;101902.75;;;15.17;64.45
76311;BME280;65120;59.304;18.294;2023-06-24T03:51:50;101900.94;;;15.20;63.82
76311;BME280;65120;59.304;18.294;2023-06-24T03:54:17;101907.00;;;15.24;63.51
76311;BME280;65120;59.304;18.294;2023-06-24T03:56:44;101902.53;;;15.29;63.12
76311;BME280;65120;59.304;18.294;2023-06-24T03:59:11;101903.31;;;15.34;63.08
76311;BME280;65120;59.304;18.294;2023-06-24T04:01:38;101904.97;;;15.38;62.66
76311;BME280;65120;59.304;18.294;2023-06-24T04:04:06;101898.72;;;15.42;62.79
76311;BME280;65120;59.304;18.294;2023-06-24T04:06:33;101899.47;;;15.49;62.60
76311;BME280;65120;59.304;18.294;2023-06-24T04:09:00;101902.91;;;15.52;62.29
76311;BME280;65120;59.304;18.294;2023-06-24T04:11:27;101908.91;;;15.59;61.82
76311;BME280;65120;59.304;18.294;2023-06-24T04:13:54;101908.81;;;15.64;61.68
76311;BME280;65120;59.304;18.294;2023-06-24T04:16:21;101909.63;;;15.69;62.04
76311;BME280;65120;59.304;18.294;2023-06-24T04:18:48;101918.31;;;15.74;62.01
76311;BME280;65120;59.304;18.294;2023-06-24T04:21:16;101908.50;;;15.79;61.86
76311;BME280;65120;59.304;18.294;2023-06-24T04:23:44;101913.66;;;15.85;61.50
76311;BME280;65120;59.304;18.294;2023-06-24T04:26:11;101916.16;;;15.91;61.59
76311;BME280;65120;59.304;18.294;2023-06-24T04:28:38;101911.59;;;16.00;60.87
76311;BME280;65120;59.304;18.294;2023-06-24T04:31:05;101911.38;;;16.07;60.58
76311;BME280;65120;59.304;18.294;2023-06-24T04:33:32;101906.84;;;16.14;59.85
76311;BME280;65120;59.304;18.294;2023-06-24T04:35:59;101898.75;;;16.22;58.92
76311;BME280;65120;59.304;18.294;2023-06-24T04:38:27;101904.75;;;16.28;58.75
76311;BME280;65120;59.304;18.294;2023-06-24T04:40:54;101896.69;;;16.34;57.97
76311;BME280;65120;59.304;18.294;2023-06-24T04:43:22;101903.50;;;16.43;57.97
76311;BME280;65120;59.304;18.294;2023-06-24T04:45:49;101901.56;;;16.51;57.69
76311;BME280;65120;59.304;18.294;2023-06-24T04:48:16;101905.72;;;16.60;56.90
76311;BME280;65120;59.304;18.294;2023-06-24T04:50:43;101902.88;;;16.68;56.54
76311;BME280;65120;59.304;18.294;2023-06-24T04:53:10;101915.03;;;16.76;55.41
76311;BME280;65120;59.304;18.294;2023-06-24T04:55:38;101913.94;;;16.83;56.05
76311;BME280;65120;59.304;18.294;2023-06-24T04:58:05;101917.16;;;16.95;55.10
76311;BME280;65120;59.304;18.294;2023-06-24T05:00:32;101916.91;;;17.04;54.07
76311;BME280;65120;59.304;18.294;2023-06-24T05:02:59;101918.34;;;17.16;53.12
76311;BME280;65120;59.304;18.294;2023-06-24T05:05:26;101917.19;;;17.26;53.50
76311;BME280;65120;59.304;18.294;2023-06-24T05:07:53;101928.44;;;17.33;52.48
76311;BME280;65120;59.304;18.294;2023-06-24T05:10:20;101922.09;;;17.38;52.18
76311;BME280;65120;59.304;18.294;2023-06-24T05:12:48;101925.38;;;17.48;51.03
76311;BME280;65120;59.304;18.294;2023-06-24T05:15:15;101919.81;;;17.57;50.82
76311;BME280;65120;59.304;18.294;2023-06-24T05:17:42;101918.53;;;17.70;50.57
76311;BME280;65120;59.304;18.294;2023-06-24T05:20:10;101916.50;;;17.80;49.76
76311;BME280;65120;59.304;18.294;2023-06-24T05:22:37;101917.06;;;17.91;49.82
76311;BME280;65120;59.304;18.294;2023-06-24T05:25:04;101919.47;;;17.99;49.99
76311;BME280;65120;59.304;18.294;2023-06-24T05:27:31;101913.91;;;18.07;49.12
76311;BME280;65120;59.304;18.294;2023-06-24T05:30:00;101900.47;;;18.14;48.75
76311;BME280;65120;59.304;18.294;2023-06-24T05:32:26;101917.81;;;18.23;48.20
76311;BME280;65120;59.304;18.294;2023-06-24T05:34:53;101907.88;;;18.30;48.08
76311;BME280;65120;59.304;18.294;2023-06-24T05:37:20;101893.91;;;18.26;46.95
76311;BME280;65120;59.304;18.294;2023-06-24T05:39:47;101904.84;;;18.42;47.63
76311;BME280;65120;59.304;18.294;2023-06-24T05:42:14;101907.28;;;18.48;47.32
76311;BME280;65120;59.304;18.294;2023-06-24T05:44:42;101899.13;;;18.54;46.65
76311;BME280;65120;59.304;18.294;2023-06-24T05:47:13;101891.81;;;18.62;46.16
76311;BME280;65120;59.304;18.294;2023-06-24T05:49:40;101890.78;;;18.66;46.10
76311;BME280;65120;59.304;18.294;2023-06-24T05:52:07;101886.94;;;18.77;46.62
76311;BME280;65120;59.304;18.294;2023-06-24T05:54:34;101896.34;;;18.85;46.74
76311;BME280;65120;59.304;18.294;2023-06-24T05:57:01;101889.91;;;18.93;46.05
76311;BME280;65120;59.304;18.294;2023-06-24T05:59:31;101891.47;;;18.98;45.90
76311;BME280;65120;59.304;18.294;2023-06-24T06:01:58;101882.50;;;19.02;45.93
76311;BME280;65120;59.304;18.294;2023-06-24T06:04:28;101886.75;;;19.06;44.70
76311;BME280;65120;59.304;18.294;2023-06-24T06:06:55;101889.28;;;19.09;44.51
76311;BME280;65120;59.304;18.294;2023-06-24T06:09:22;101884.75;;;19.13;44.50
76311;BME280;65120;59.304;18.294;2023-06-24T06:11:49;101890.81;;;19.17;44.09
76311;BME280;65120;59.304;18.294;2023-06-24T06:14:16;101874.28;;;19.10;44.53
76311;BME280;65120;59.304;18.294;2023-06-24T06:16:43;101901.06;;;19.26;43.94
76311;BME280;65120;59.304;18.294;2023-06-24T06:19:10;101895.63;;;19.29;43.79
76311;BME280;65120;59.304;18.294;2023-06-24T06:21:38;101895.47;;;19.33;43.13
76311;BME280;65120;59.304;18.294;2023-06-24T06:24:06;101895.31;;;19.38;43.26
76311;BME280;65120;59.304;18.294;2023-06-24T06:26:33;101896.91;;;19.42;42.97
76311;BME280;65120;59.304;18.294;2023-06-24T06:29:00;101885.38;;;19.43;43.10
76311;BME280;65120;59.304;18.294;2023-06-24T06:31:27;101893.28;;;19.45;43.49
76311;BME280;65120;59.304;18.294;2023-06-24T06:33:53;101885.28;;;19.46;43.61
76311;BME280;65120;59.304;18.294;2023-06-24T06:36:20;101886.91;;;19.50;43.78
76311;BME280;65120;59.304;18.294;2023-06-24T06:38:49;101890.28;;;19.54;43.85
76311;BME280;65120;59.304;18.294;2023-06-24T06:41:16;101877.91;;;19.54;43.30
76311;BME280;65120;59.304;18.294;2023-06-24T06:43:43;101879.56;;;19.57;43.12
76311;BME280;65120;59.304;18.294;2023-06-24T06:46:10;101869.81;;;19.58;42.98
76311;BME280;65120;59.304;18.294;2023-06-24T06:48:37;101877.72;;;19.59;42.55
76311;BME280;65120;59.304;18.294;2023-06-24T06:51:03;101874.03;;;19.63;42.80
76311;BME280;65120;59.304;18.294;2023-06-24T06:53:32;101875.72;;;19.66;42.78
76311;BME280;65120;59.304;18.294;2023-06-24T06:56:01;101877.28;;;19.71;42.16
76311;BME280;65120;59.304;18.294;2023-06-24T06:58:28;101881.47;;;19.77;42.24
76311;BME280;65120;59.304;18.294;2023-06-24T07:00:55;101876.75;;;19.85;41.60
76311;BME280;65120;59.304;18.294;2023-06-24T07:03:26;101872.94;;;19.92;42.07
76311;BME280;65120;59.304;18.294;2023-06-24T07:05:54;101873.47;;;20.00;42.43
76311;BME280;65120;59.304;18.294;2023-06-24T07:08:21;101878.53;;;20.07;42.02
76311;BME280;65120;59.304;18.294;2023-06-24T07:10:48;101875.63;;;20.13;42.24
76311;BME280;65120;59.304;18.294;2023-06-24T07:13:16;101877.09;;;20.20;42.01
76311;BME280;65120;59.304;18.294;2023-06-24T07:15:43;101880.38;;;20.27;41.07
76311;BME280;65120;59.304;18.294;2023-06-24T07:18:10;101876.38;;;20.37;40.70
76311;BME280;65120;59.304;18.294;2023-06-24T07:20:37;101881.25;;;20.48;41.52
76311;BME280;65120;59.304;18.294;2023-06-24T07:23:03;101876.53;;;20.56;41.63
76311;BME280;65120;59.304;18.294;2023-06-24T07:25:30;101872.41;;;20.69;41.10
76311;BME280;65120;59.304;18.294;2023-06-24T07:27:57;101878.91;;;20.82;41.61
76311;BME280;65120;59.304;18.294;2023-06-24T07:30:26;101870.47;;;20.93;41.10
76311;BME280;65120;59.304;18.294;2023-06-24T07:32:53;101876.22;;;21.03;40.77
76311;BME280;65120;59.304;18.294;2023-06-24T07:35:19;101874.09;;;21.11;40.86
76311;BME280;65120;59.304;18.294;2023-06-24T07:37:46;101876.25;;;21.22;40.81
76311;BME280;65120;59.304;18.294;2023-06-24T07:40:13;101878.56;;;21.29;40.08
76311;BME280;65120;59.304;18.294;2023-06-24T07:42:41;101873.03;;;21.34;40.75
76311;BME280;65120;59.304;18.294;2023-06-24T07:45:08;101876.03;;;21.47;40.29
76311;BME280;65120;59.304;18.294;2023-06-24T07:47:37;101866.81;;;21.54;39.52
76311;BME280;65120;59.304;18.294;2023-06-24T07:50:04;101876.16;;;21.63;40.14
76311;BME280;65120;59.304;18.294;2023-06-24T07:52:32;101872.13;;;21.73;39.52
76311;BME280;65120;59.304;18.294;2023-06-24T07:54:59;101874.34;;;21.82;39.19
76311;BME280;65120;59.304;18.294;2023-06-24T07:57:26;101859.72;;;21.91;38.93
76311;BME280;65120;59.304;18.294;2023-06-24T07:59:53;101865.38;;;22.02;38.35
76311;BME280;65120;59.304;18.294;2023-06-24T08:02:21;101855.38;;;22.07;38.68
76311;BME280;65120;59.304;18.294;2023-06-24T08:04:50;101862.78;;;22.19;37.95
76311;BME280;65120;59.304;18.294;2023-06-24T08:07:17;101867.72;;;22.27;38.57
76311;BME280;65120;59.304;18.294;2023-06-24T08:09:44;101861.25;;;22.33;38.90
76311;BME280;65120;59.304;18.294;2023-06-24T08:12:11;101860.06;;;22.38;38.26
76311;BME280;65120;59.304;18.294;2023-06-24T08:14:38;101859.75;;;22.44;36.83
76311;BME280;65120;59.304;18.294;2023-06-24T08:17:05;101854.97;;;22.51;37.04
76311;BME280;65120;59.304;18.294;2023-06-24T08:19:32;101856.53;;;22.55;37.62
76311;BME280;65120;59.304;18.294;2023-06-24T08:22:00;101857.94;;;22.62;37.38
76311;BME280;65120;59.304;18.294;2023-06-24T08:24:28;101862.97;;;22.68;37.84
76311;BME280;65120;59.304;18.294;2023-06-24T08:26:54;101857.31;;;22.75;37.95
76311;BME280;65120;59.304;18.294;2023-06-24T08:29:21;101864.03;;;22.82;37.41
76311;BME280;65120;59.304;18.294;2023-06-24T08:31:48;101872.63;;;22.87;36.57
76311;BME280;65120;59.304;18.294;2023-06-24T08:34:15;101866.00;;;22.96;37.66
76311;BME280;65120;59.304;18.294;2023-06-24T08:36:42;101861.28;;;23.01;37.68
76311;BME280;65120;59.304;18.294;2023-06-24T08:39:10;101867.25;;;23.06;37.58
76311;BME280;65120;59.304;18.294;2023-06-24T08:41:37;101862.44;;;23.12;36.47
76311;BME280;65120;59.304;18.294;2023-06-24T08:44:04;101860.38;;;23.18;36.98
76311;BME280;65120;59.304;18.294;2023-06-24T08:46:31;101860.03;;;23.24;37.07
76311;BME280;65120;59.304;18.294;2023-06-24T08:49:05;101858.00;;;23.29;36.92
76311;BME280;65120;59.304;18.294;2023-06-24T08:51:41;101855.94;;;23.34;36.94
76311;BME280;65120;59.304;18.294;2023-06-24T08:54:09;101855.59;;;23.40;36.21
76311;BME280;65120;59.304;18.294;2023-06-24T08:56:37;101863.25;;;23.46;36.25
76311;BME280;65120;59.304;18.294;2023-06-24T08:59:05;101864.63;;;23.53;36.21
76311;BME280;65120;59.304;18.294;2023-06-24T09:01:32;101859.91;;;23.58;36.59
76311;BME280;65120;59.304;18.294;2023-06-24T09:03:59;101864.03;;;23.64;36.78
76311;BME280;65120;59.304;18.294;2023-06-24T09:06:26;101864.59;;;23.71;36.60
76311;BME280;65120;59.304;18.294;2023-06-24T09:08:53;101867.84;;;23.76;35.66
76311;BME280;65120;59.304;18.294;2023-06-24T09:11:26;101858.63;;;23.82;36.17
76311;BME280;65120;59.304;18.294;2023-06-24T09:13:56;101860.09;;;23.87;36.37
76311;BME280;65120;59.304;18.294;2023-06-24T09:16:23;101861.66;;;23.91;36.02
76311;BME280;65120;59.304;18.294;2023-06-24T09:18:51;101859.59;;;23.96;34.53
76311;BME280;65120;59.304;18.294;2023-06-24T09:21:23;101861.13;;;24.00;35.41
76311;BME280;65120;59.304;18.294;2023-06-24T09:23:53;101839.84;;;23.99;35.44
76311;BME280;65120;59.304;18.294;2023-06-24T09:26:22;101843.63;;;24.11;35.11
76311;BME280;65120;59.304;18.294;2023-06-24T09:28:51;101847.81;;;24.15;35.63
76311;BME280;65120;59.304;18.294;2023-06-24T09:31:18;101850.13;;;24.21;34.87
76311;BME280;65120;59.304;18.294;2023-06-24T09:33:46;101845.38;;;24.26;34.25
76311;BME280;65120;59.304;18.294;2023-06-24T09:36:13;101848.06;;;24.26;34.97
76311;BME280;65120;59.304;18.294;2023-06-24T09:38:42;101847.69;;;24.32;34.76
76311;BME280;65120;59.304;18.294;2023-06-24T09:41:10;101856.38;;;24.36;34.57
76311;BME280;65120;59.304;18.294;2023-06-24T09:43:37;101847.22;;;24.40;35.25
76311;BME280;65120;59.304;18.294;2023-06-24T09:46:07;101854.13;;;24.44;35.54
76311;BME280;65120;59.304;18.294;2023-06-24T09:48:34;101851.28;;;24.47;34.92
76311;BME280;65120;59.304;18.294;2023-06-24T09:51:02;101850.03;;;24.53;35.26
76311;BME280;65120;59.304;18.294;2023-06-24T09:53:31;101849.84;;;24.56;34.39
76311;BME280;65120;59.304;18.294;2023-06-24T09:55:59;101854.09;;;24.60;35.12
76311;BME280;65120;59.304;18.294;2023-06-24T09:58:28;101842.25;;;24.64;35.54
76311;BME280;65120;59.304;18.294;2023-06-24T10:01:01;101839.38;;;24.67;35.28
76311;BME280;65120;59.304;18.294;2023-06-24T10:03:32;101841.78;;;24.72;35.52
76311;BME280;65120;59.304;18.294;2023-06-24T10:05:59;101834.25;;;24.78;35.23
76311;BME280;65120;59.304;18.294;2023-06-24T10:08:27;101837.59;;;24.82;34.90
76311;BME280;65120;59.304;18.294;2023-06-24T10:10:55;101833.78;;;24.86;34.23
76311;BME280;65120;59.304;18.294;2023-06-24T10:13:22;101831.88;;;24.88;34.54
76311;BME280;65120;59.304;18.294;2023-06-24T10:15:50;101823.00;;;24.87;34.74
76311;BME280;65120;59.304;18.294;2023-06-24T10:18:34;101821.06;;;24.89;34.38
76311;BME280;65120;59.304;18.294;2023-06-24T10:21:02;101814.78;;;24.90;33.95
76311;BME280;65120;59.304;18.294;2023-06-24T10:23:31;101807.72;;;24.89;33.83
76311;BME280;65120;59.304;18.294;2023-06-24T10:25:58;101816.31;;;24.95;34.78
76311;BME280;65120;59.304;18.294;2023-06-24T10:28:25;101816.13;;;24.98;33.90
76311;BME280;65120;59.304;18.294;2023-06-24T10:30:56;101814.97;;;25.02;34.24
76311;BME280;65120;59.304;18.294;2023-06-24T10:33:23;101806.97;;;25.02;34.15
76311;BME280;65120;59.304;18.294;2023-06-24T10:35:52;101809.44;;;25.05;33.90
76311;BME280;65120;59.304;18.294;2023-06-24T10:38:19;101805.81;;;25.06;33.33
76311;BME280;65120;59.304;18.294;2023-06-24T10:40:49;101812.84;;;25.07;34.06
76311;BME280;65120;59.304;18.294;2023-06-24T10:43:26;101806.56;;;25.08;33.38
76311;BME280;65120;59.304;18.294;2023-06-24T10:45:56;101817.25;;;25.08;33.76
76311;BME280;65120;59.304;18.294;2023-06-24T10:48:23;101814.59;;;25.08;34.91
76311;BME280;65120;59.304;18.294;2023-06-24T10:50:52;101807.44;;;25.08;34.09
76311;BME280;65120;59.304;18.294;2023-06-24T10:53:19;101796.28;;;25.02;34.06
76311;BME280;65120;59.304;18.294;2023-06-24T10:55:46;101809.25;;;25.08;33.82
76311;BME280;65120;59.304;18.294;2023-06-24T10:58:14;101803.91;;;25.08;33.81
76311;BME280;65120;59.304;18.294;2023-06-24T11:00:42;101803.78;;;25.09;34.00
76311;BME280;65120;59.304;18.294;2023-06-24T11:03:12;101809.97;;;25.10;34.06
76311;BME280;65120;59.304;18.294;2023-06-24T11:05:40;101800.25;;;25.09;33.98
76311;BME280;65120;59.304;18.294;2023-06-24T11:08:09;101794.81;;;25.10;34.70
76311;BME280;65120;59.304;18.294;2023-06-24T11:10:44;101802.72;;;25.12;34.92
76311;BME280;65120;59.304;18.294;2023-06-24T11:13:11;101800.06;;;25.12;35.17
76311;BME280;65120;59.304;18.294;2023-06-24T11:15:38;101804.38;;;25.15;34.90
76311;BME280;65120;59.304;18.294;2023-06-24T11:18:08;101795.41;;;25.16;34.95
76311;BME280;65120;59.304;18.294;2023-06-24T11:20:36;101792.72;;;25.16;34.30
76311;BME280;65120;59.304;18.294;2023-06-24T11:23:06;101794.47;;;25.17;34.78
76311;BME280;65120;59.304;18.294;2023-06-24T11:25:38;101795.31;;;25.17;35.08
76311;BME280;65120;59.304;18.294;2023-06-24T11:28:05;101777.69;;;25.13;35.15
76311;BME280;65120;59.304;18.294;2023-06-24T11:30:38;101794.47;;;25.17;35.87
76311;BME280;65120;59.304;18.294;2023-06-24T11:33:05;101797.03;;;25.18;35.63
76311;BME280;65120;59.304;18.294;2023-06-24T11:35:32;101787.28;;;25.17;35.20
76311;BME280;65120;59.304;18.294;2023-06-24T11:38:01;101786.31;;;25.18;34.95
76311;BME280;65120;59.304;18.294;2023-06-24T11:40:30;101788.06;;;25.19;35.15
76311;BME280;65120;59.304;18.294;2023-06-24T11:43:00;101788.91;;;25.20;35.71
76311;BME280;65120;59.304;18.294;2023-06-24T11:45:27;101784.34;;;25.22;35.61
76311;BME280;65120;59.304;18.294;2023-06-24T11:48:01;101778.88;;;25.23;35.26
76311;BME280;65120;59.304;18.294;2023-06-24T11:50:30;101785.06;;;25.24;35.18
76311;BME280;65120;59.304;18.294;2023-06-24T11:52:57;101779.06;;;25.20;35.67
76311;BME280;65120;59.304;18.294;2023-06-24T11:55:25;101780.69;;;25.23;35.46
76311;BME280;65120;59.304;18.294;2023-06-24T11:57:54;101783.16;;;25.26;34.69
76311;BME280;65120;59.304;18.294;2023-06-24T12:00:23;101779.53;;;25.27;34.62
76311;BME280;65120;59.304;18.294;2023-06-24T12:02:52;101776.84;;;25.27;34.48
76311;BME280;65120;59.304;18.294;2023-06-24T12:05:21;101781.34;;;25.26;35.63
76311;BME280;65120;59.304;18.294;2023-06-24T12:07:53;101783.16;;;25.26;34.87
76311;BME280;65120;59.304;18.294;2023-06-24T12:10:20;101780.59;;;25.24;34.48
76311;BME280;65120;59.304;18.294;2023-06-24T12:12:47;101776.19;;;25.23;34.79
76311;BME280;65120;59.304;18.294;2023-06-24T12:15:14;101783.25;;;25.24;35.25
76311;BME280;65120;59.304;18.294;2023-06-24T12:17:43;101780.50;;;25.26;35.74
76311;BME280;65120;59.304;18.294;2023-06-24T12:20:10;101772.38;;;25.27;34.76
76311;BME280;65120;59.304;18.294;2023-06-24T12:22:39;101763.59;;;25.25;35.61
76311;BME280;65120;59.304;18.294;2023-06-24T12:25:07;101773.97;;;25.30;35.31
76311;BME280;65120;59.304;18.294;2023-06-24T12:27:34;101765.97;;;25.30;35.82
76311;BME280;65120;59.304;18.294;2023-06-24T12:30:00;101768.63;;;25.30;35.98
76311;BME280;65120;59.304;18.294;2023-06-24T12:32:27;101759.56;;;25.32;35.78
76311;BME280;65120;59.304;18.294;2023-06-24T12:34:56;101770.38;;;25.31;35.20
76311;BME280;65120;59.304;18.294;2023-06-24T12:37:22;101762.44;;;25.29;35.51
76311;BME280;65120;59.304;18.294;2023-06-24T12:39:50;101766.84;;;25.30;35.72
76311;BME280;65120;59.304;18.294;2023-06-24T12:42:17;101765.03;;;25.31;36.04
76311;BME280;65120;59.304;18.294;2023-06-24T12:44:44;101751.00;;;25.27;35.87
76311;BME280;65120;59.304;18.294;2023-06-24T12:47:11;101754.31;;;25.31;35.66